Go Pro

SPDR Portfolio Mortgage Backed Bond ETF (SPMB) Institutional Ownership

SPDR Portfolio Mortgage Backed Bond ETF logo
$21.86 +0.04 (+0.18%)
As of 04:10 PM Eastern

Institutional Ownership Changes (13F Filings) for SPDR Portfolio Mortgage Backed Bond ETF (NYSEARCA:SPMB)

Number of
Institutional Buyers
(last 12 months)
172
Total
Institutional Inflows
(last 12 months)
$515.10M
Number of
Institutional Sellers
(last 12 months)
86
Total
Institutional Outflows
(last 12 months)
$106.40M
Get SPMB Insider Trade Alerts

Want to know when executives and insiders are buying or selling SPDR Portfolio Mortgage Backed Bond ETF stock? Sign up for InsiderTrades.com's daily newsletter to get the latest insider transactions delivered to your inbox daily.

SMS is currently available in Australia, Belgium, Canada, France, Germany, Ireland, Italy, New Zealand, the Netherlands, Singapore, South Africa, Spain, Switzerland, the United Kingdom, and the United States. By entering your phone number and clicking the sign-up button, you agree to receive periodic text messages from MarketBeat at the phone number you submitted, including texts that may be sent using an automatic telephone dialing system. Message and data rates may apply. Message frequency will vary. Messages will consist of stock alerts, news stories, and partner advertisements/offers. Consent is not a condition of the purchase of any goods or services. Text HELP for help/customer support. Unsubscribe at any time by replying "STOP" to any text message that you receive from MarketBeat or by visiting our mailing preferences page. Read our full terms of service and privacy policy.
Skip Chart & View Institutional Buying and Selling Data

SPMB Institutional Buying and Selling by Quarter

SPDR Portfolio Mortgage Backed Bond ETF Major Shareholders & Ownership History

Reporting DateMajor Shareholder NameShares HeldMarket Value% of PortfolioQuarterly Change in SharesOwnership in CompanyDetails
9/2/2026 Citadel Advisors LLC1,460,140$32.67M0.0%N/A0.460%
8/27/2026 Corient Private Wealth LP43,087$961K0.0%N/A0.014%
8/25/2026 Tobias Financial Advisors Inc.3,370$75K0.0%N/A0.001%
8/23/2026 DMC Group LLC199,152$4.44M3.1%N/A0.063%
8/23/2026 Studio Investment Management LLC76,055$1.70M0.3%N/A0.024%
8/22/2026 Compass Financial Management LLC1,949$43K0.0%N/A0.001%
8/22/2026 Cornerstone Advisors Asset Management LLC63,149$1.41M0.2%N/A0.020%
8/22/2026 Jim Saulnier & Associates LLC2,546$57K0.0%N/A0.001%
8/22/2026 Concurrent Investment Advisors LLC7,771$173K0.0%N/A0.002%
8/21/2026 Montz Harcus Wealth Management LLC7,036$157K0.1%N/A0.002%
8/21/2026 Fortune 45 LLC495,365$11.05M4.8%N/A0.156%
8/21/2026 Carter Financial Group INC.19,317$431K0.2%N/A0.006%
8/21/2026 Rodgers & Associates LTD322,641$7.20M0.5%N/A0.102%
8/21/2026 Emergent Wealth Advisors LLC1,921$43K0.0%N/A0.001%
8/21/2026 Pacifica Partners Inc.3,231$72K0.0%N/A0.001%
8/21/2026 Firestone Capital Management14,729$329K0.1%N/A0.005%
8/21/2026 Symphony Financial Ltd. Co.591,638$13.20M1.5%N/A0.186%
8/21/2026 Chesapeake Wealth Management318,400$7.10M2.0%+0.5%0.100%
8/21/2026 Acorn Wealth Advisors LLC47,764$1.07M0.2%N/A0.015%
8/21/2026 Rinkey Investments60,896$1.36M0.3%N/A0.019%
8/21/2026 Financial Life Advisors1,300,999$29.03M8.3%+24.9%0.410%
8/20/2026 Avant Capital LLC2,779$62K0.0%N/A0.001%
8/20/2026 Nwam LLC110,462$2.46M0.1%N/A0.035%
8/20/2026 JNBA Financial Advisors5,825$130K0.0%N/A0.002%
8/12/2026 Compass Financial Management LLC1,949$43K0.0%N/A0.001%
7/10/2026 Wealthcare Advisory Partners LLC27,225$607K0.0%-2.5%0.009%
7/9/2026 Centurion Wealth Management LLC9,381$209K0.0%N/A0.003%
7/9/2026 Ehrlich Financial Group139,202$3.11M1.6%+5.9%0.044%
7/8/2026 Archer Investment Management LLC159,834$3.57M1.2%+83.3%0.050%
7/7/2026 Balefire LLC19,949$445K0.1%-10.6%0.006%
7/7/2026 Dynamic Advisor Solutions LLC120,865$2.70M0.1%-1.3%0.038%
7/7/2026 GK Wealth Management LLC14,171$316K0.2%N/A0.004%
7/7/2026 Pacific Excel Wealth Advisors Inc.9,363$209K0.1%N/A0.003%
7/6/2026 Boltwood Capital Management223,723$4.99M1.1%+10.7%0.071%
7/6/2026 Trilogy Capital Inc.45,696$1.02M0.0%+14.0%0.014%
7/1/2026 Confluence Investment Management LLC3,370,501$75.20M1.2%-12.5%1.063%
6/18/2026 Western Wealth Management LLC189,261$4.24M0.2%-1.9%0.061%
5/19/2026 Western Wealth Management LLC189,261$4.24M0.2%-1.9%0.061%
5/19/2026 Bank of America Corp DE2,183,078$48.88M0.0%+6.6%0.706%
5/19/2026 Chesapeake Wealth Management316,789$7.09M2.2%+3.4%0.102%
The $15 Gold Fund That Pays Up to $1,152/Month (Ad)

Gold is hitting record highs, but most investors are leaving income on the table. A $15 fund is quietly paying out up to $1,152 a month to regular investors - no mining stocks, no options, no physical metal required. Chief Income Strategist Tim Plaehn calls it a breakthrough strategy that transforms gold's rally into reliable monthly payouts. The next distribution is just days away.tc pixel

Discover the gold income fund before the next payout date
5/19/2026 Strategic Investment Advisors MI39,476$883K0.1%+6.7%0.013%
5/18/2026 Amundi74,057$1.66M0.0%N/A0.024%
5/18/2026 Royal Bank of Canada59,736$1.34M0.0%+7.9%0.019%
5/15/2026 Gateway Wealth Partners LLC30,701$687K0.0%+171.0%0.010%
5/15/2026 Waverly Advisors LLC210,632$4.72M0.0%+5.7%0.068%
5/14/2026Gibbs Wealth Management843,445$18.89M2.5%+84.8%0.273%
5/14/2026 Lido Advisors LLC27,165$608K0.0%-87.5%0.009%
5/13/2026 Cetera Investment Advisers768,195$17.20M0.0%+39.5%0.248%
5/13/2026 Clearwater Capital Advisors LLC236,435$5.29M0.4%-29.2%0.076%
5/13/2026 Wiregrass Investment Management LLC39,907$894K0.7%+13.0%0.013%
5/12/2026 CacheTech Inc.106,495$2.38M0.5%+29.1%0.034%
5/8/2026 CMC Financial Group28,241$632K1.2%N/A0.009%
5/7/2026 Balefire LLC22,324$500K0.1%+42.4%0.007%
5/6/2026 Modera Wealth Management LLC15,994$358K0.0%+11.2%0.005%
5/6/2026 Assetmark Inc.1,813,363$40.60M0.1%+4.1%0.586%
5/5/2026 Marks Group Wealth Management Inc76,687$1.72M0.2%N/A0.025%
5/5/2026 Collaborative Wealth Managment Inc.75,272$1.69M0.8%-61.0%0.024%
5/5/2026Signet Financial Management LLC674,477$15.10M1.7%-0.1%0.218%
5/5/2026 Sanctuary Advisors LLC1,001,879$22.43M0.1%+2.7%0.324%
5/5/2026 Checchi Capital Advisers LLC223,175$5.00M0.3%-23.9%0.072%
5/4/2026 Hibernia Wealth Partners LLC9,517$213K0.1%N/A0.003%
5/2/2026 Diversify Wealth Management LLC99,734$2.22M0.0%+368.1%0.032%
5/2/2026 Valmark Advisers Inc.174,263$3.90M0.0%+12.7%0.056%
5/1/2026 Fifth Third Bancorp57,245$1.28M0.0%N/A0.019%
4/30/2026 Kestra Advisory Services LLC98,278$2.20M0.0%-49.6%0.032%
4/29/2026 Financial Life Advisors1,041,380$23.32M7.3%+9.3%0.337%
4/29/2026 Integrated Advisors Network LLC47,929$1.07M0.1%+142.0%0.016%
4/28/2026 Compton Financial Group LLC1,762,070$39.45M8.7%-16.0%0.570%
4/27/2026 Private Advisor Group LLC553,135$12.39M0.1%-5.8%0.179%
4/27/2026 Financial Plan Inc.1,271,622$28.47M3.1%+22.5%0.411%
4/24/2026 Midwest Capital Advisors LLC210,909$4.72M2.2%+18.8%0.068%
4/24/2026 True Blue Financial LLC17,806$399K0.3%+19.0%0.006%
4/23/2026 Capital Investment Counsel LLC32,061$718K0.1%-7.6%0.010%
4/23/2026 Drucker Wealth 3.0 LLC204,701$4.58M0.8%+1.9%0.066%
4/23/2026 EWA LLC82,323$1.84M0.4%+26.8%0.027%
4/23/2026 Detalus Advisors LLC279,659$6.26M1.4%+8.4%0.090%
4/23/2026 Apollon Financial LLC115,219$2.58M0.4%N/A0.037%
4/22/2026 Trilogy Capital Inc.40,101$898K0.0%-49.1%0.013%
4/21/2026 Columbus Macro LLC12,651$283K0.0%-4.2%0.004%
4/21/2026 Foster & Motley Inc.13,374$299K0.0%-10.1%0.004%
4/20/2026 RFG Advisory LLC52,512$1.18M0.0%-49.9%0.017%
4/17/2026 Certified Advisory Corp415,543$9.30M0.8%+3.9%0.134%
4/17/2026 Bell Investment Advisors Inc40,318$903K0.1%-6.0%0.013%
4/17/2026 Brookstone Capital Management48,367$1.08M0.0%-3.2%0.016%
4/16/2026 Spectrum Planning & Advisory Services Inc.128,424$2.88M1.4%+4.2%0.042%
4/16/2026 Center For Asset Management LLC50,874$1.14M0.6%+10.4%0.016%
2/24/2026 Astoria Portfolio Advisors LLC.9,645$220K0.1%N/A0.003%
2/20/2026 93 Financial Group LLC756,474$16.96M7.4%N/A0.252%
2/19/2026 TMB Capital Partners LLC42,996$964K0.3%N/A0.014%
2/19/2026 Axxcess Wealth Management LLC10,764$241K0.0%N/A0.004%
The REAL Reason Trump is Invading Iran (Ad)

For a moment… Forget about Trump’s ties to Israel. Forget about reports of Iran’s nuclear program. Because my research has led me to believe we’re risking World War 3 with Iran for a completely different reason.tc pixel

Click here to find out what it is.
2/18/2026 CacheTech Inc.82,475$1.85M0.3%-8.4%0.028%
2/18/2026 Adams Wealth Management72,464$1.62M0.3%-9.4%0.024%
2/18/2026 Stokes Family Office LLC626,988$14.05M1.3%+12.1%0.209%
2/18/2026 Vertex Planning Partners LLC125,589$2.82M0.6%+3.5%0.042%
2/18/2026 Strategic Investment Advisors MI36,998$829K0.1%+527.8%0.012%
2/17/2026 Integrated Advisors Network LLC19,805$444K0.0%-4.3%0.007%
2/17/2026 Cetera Investment Advisers550,798$12.35M0.0%+5.8%0.184%
2/17/2026 Equitable Holdings Inc.427,467$9.58M0.1%+0.2%0.143%
2/17/2026 Osaic Holdings Inc.138,412$3.10M0.0%-46.9%0.046%
2/17/2026 Private Advisor Group LLC586,996$13.16M0.1%+14.9%0.196%


SPMB Institutional Ownership - Frequently Asked Questions

During the previous two years, 238 institutional investors and hedge funds held shares of SPDR Portfolio Mortgage Backed Bond ETF. The most heavily invested institutionals were Financial Engines Advisors L.L.C. ($4.23B), LPL Financial LLC ($453.66M), Stifel Financial Corp ($170.42M), Benjamin Edwards Inc. ($137.16M), State Street Corp ($112.53M), Confluence Investment Management LLC ($75.20M), and Ameriprise Financial Inc. ($68.10M).Learn more on SPDR Portfolio Mortgage Backed Bond ETF's institutional investors.

Of the 197 institutional investors that purchased SPDR Portfolio Mortgage Backed Bond ETF's stock in the last 24 months, the following investors and hedge funds have bought the highest volume of shares: Financial Engines Advisors L.L.C. ($4.43M), State Street Corp ($3.91M), Confluence Investment Management LLC ($1.99M), LPL Financial LLC ($1.97M), Citadel Advisors LLC ($1.83M), Benjamin Edwards Inc. ($1.58M), and Financial Plan Inc. ($1.27M).

Institutional investors have bought a total of 22,996,770 shares in the last 24 months. This purchase volume represents approximately $515.10M in transactions.

Of the 86 institutional investors that sold SPDR Portfolio Mortgage Backed Bond ETF's stock in the last 24 months, the following investors and hedge funds have sold the highest volume of shares: Confluence Investment Management LLC ($988.39K), Benjamin Edwards Inc. ($456.32K), Compton Financial Group LLC ($336.17K), Clearwater Capital Advisors LLC ($335.50K), Kingsview Wealth Management LLC ($242.33K), RFG Advisory LLC ($228.17K), and Collaborative Wealth Managment Inc. ($227.39K).

Institutional investors have sold a total of 4,747,643 shares in the last 24 months. This volume of shares sold represents approximately $106.40M in transactions.



Institutional ownership data for NYSEARCA:SPMB is compiled from quarterly 13F filings submitted to the U.S. Securities and Exchange Commission (SEC), with the most recent received on 9/2/2026. New 13F filings are added each quarter as they're published.
From Our Partners